Time;durP1;ratioP1;P1;durP2;ratioP2;P2;SDS_P1;SDS_P2;PMS_P1;PMS_P2;Temp;Humidity;BMP_temperature;BMP_pressure;BME280_temperature;BME280_humidity;BME280_pressure;Samples;Min_cycle;Max_cycle;Signal;HPM_P1;HPM_P2
2022/08/25 00:00:16;;;;;;;7.80;6.00;;;22.20;99.90;;;;;;4152859;28;20295;-79
2022/08/25 00:02:17;;;;;;;8.10;6.03;;;22.20;99.90;;;;;;4138764;28;20783;-79
2022/08/25 00:04:20;;;;;;;9.90;6.40;;;22.10;99.90;;;;;;4159626;28;20201;-80
2022/08/25 00:06:22;;;;;;;8.53;6.67;;;22.20;99.90;;;;;;4158916;28;20262;-80
2022/08/25 00:08:24;;;;;;;10.27;7.13;;;22.10;99.90;;;;;;4161041;28;20233;-80
2022/08/25 00:10:28;;;;;;;8.57;6.60;;;22.10;99.90;;;;;;4147618;28;20296;-80
2022/08/25 00:12:30;;;;;;;12.13;7.70;;;22.10;99.90;;;;;;4142500;28;20208;-80
2022/08/25 00:14:38;;;;;;;12.17;7.03;;;22.10;99.90;;;;;;4143842;28;20651;-80
2022/08/25 00:16:40;;;;;;;9.33;6.53;;;22.20;99.90;;;;;;4155913;28;20197;-80
2022/08/25 00:18:44;;;;;;;13.30;7.10;;;22.10;99.90;;;;;;4156195;28;20253;-80
2022/08/25 00:20:46;;;;;;;9.50;6.80;;;22.10;99.90;;;;;;4139720;28;20208;-80
2022/08/25 00:22:48;;;;;;;9.07;7.03;;;22.10;99.90;;;;;;4160975;28;20294;-80
2022/08/25 00:24:50;;;;;;;12.57;7.33;;;22.10;99.90;;;;;;4157491;28;20291;-79
2022/08/25 00:26:55;;;;;;;10.50;7.00;;;22.10;99.90;;;;;;4138192;28;20226;-80
2022/08/25 00:28:57;;;;;;;10.80;7.60;;;22.10;99.90;;;;;;4149677;28;20239;-80
2022/08/25 00:31:01;;;;;;;8.83;6.63;;;22.10;99.90;;;;;;4124411;28;20505;-80
2022/08/25 00:33:03;;;;;;;10.27;7.17;;;22.10;99.90;;;;;;4152933;28;20209;-80
2022/08/25 00:35:05;;;;;;;9.03;6.90;;;22.10;99.90;;;;;;4155049;28;20210;-80
2022/08/25 00:37:09;;;;;;;9.97;7.33;;;22.10;99.90;;;;;;4152813;28;20935;-80
2022/08/25 00:39:11;;;;;;;10.27;7.10;;;22.00;99.90;;;;;;4149932;28;20648;-80
2022/08/25 00:41:16;;;;;;;9.40;7.27;;;22.00;99.90;;;;;;4152043;28;20215;-80
2022/08/25 00:43:18;;;;;;;10.87;7.40;;;22.00;99.90;;;;;;4151605;28;20207;-80
2022/08/25 00:45:22;;;;;;;8.97;6.87;;;22.00;99.90;;;;;;4135766;28;20298;-80
2022/08/25 00:47:25;;;;;;;13.60;7.60;;;22.10;99.90;;;;;;4151857;28;20308;-81
2022/08/25 00:49:31;;;;;;;12.13;7.60;;;22.00;99.90;;;;;;4154843;28;20629;-81
2022/08/25 00:51:38;;;;;;;10.83;8.00;;;22.00;99.90;;;;;;4155197;28;20220;-81
2022/08/25 00:53:40;;;;;;;8.87;7.50;;;22.00;99.90;;;;;;4148025;28;20224;-80
2022/08/25 00:55:42;;;;;;;10.27;7.63;;;22.00;99.90;;;;;;4151590;28;20213;-80
2022/08/25 00:57:51;;;;;;;9.30;6.63;;;22.00;99.90;;;;;;4133978;28;20195;-81
2022/08/25 00:59:53;;;;;;;8.37;6.73;;;22.00;99.90;;;;;;4152172;28;20240;-80
2022/08/25 01:01:57;;;;;;;8.83;6.97;;;21.90;99.90;;;;;;4152470;28;20209;-81
2022/08/25 01:04:01;;;;;;;10.30;7.47;;;21.90;99.90;;;;;;4133566;28;20295;-81
2022/08/25 01:06:05;;;;;;;9.07;7.07;;;21.80;99.90;;;;;;4153711;28;20686;-81
2022/08/25 01:08:09;;;;;;;9.90;6.73;;;21.90;99.90;;;;;;4134600;28;20225;-81
2022/08/25 01:10:12;;;;;;;12.30;7.03;;;21.80;99.90;;;;;;4136699;28;20213;-80
2022/08/25 01:12:14;;;;;;;9.93;6.70;;;21.80;99.90;;;;;;4133006;28;20213;-81
2022/08/25 01:14:18;;;;;;;10.87;6.93;;;21.80;99.90;;;;;;4154405;28;20235;-81
2022/08/25 01:16:20;;;;;;;7.83;6.33;;;21.80;99.90;;;;;;4151468;28;20297;-81
2022/08/25 01:18:23;;;;;;;8.17;6.40;;;21.70;99.90;;;;;;4155092;28;20309;-81
2022/08/25 01:20:28;;;;;;;11.87;6.70;;;21.70;99.90;;;;;;4129209;28;20236;-81
2022/08/25 01:22:31;;;;;;;9.93;6.73;;;21.70;99.90;;;;;;4149403;28;20231;-81
2022/08/25 01:24:38;;;;;;;9.47;6.57;;;21.70;99.90;;;;;;4156836;28;20212;-81
2022/08/25 01:26:40;;;;;;;9.37;7.13;;;21.60;99.90;;;;;;4135895;28;20224;-80
2022/08/25 01:31:00;;;;;;;8.70;6.83;;;21.60;99.90;;;;;;4146537;28;20214;-81
2022/08/25 01:33:03;;;;;;;8.47;6.63;;;21.60;99.90;;;;;;4148025;28;20212;-80
2022/08/25 01:35:06;;;;;;;9.93;7.03;;;21.50;99.90;;;;;;4133595;28;20239;-80
2022/08/25 01:37:10;;;;;;;8.67;6.63;;;21.50;99.90;;;;;;4148060;28;20211;-81
2022/08/25 01:39:13;;;;;;;9.63;7.27;;;21.50;99.90;;;;;;4127666;28;20843;-80
2022/08/25 01:41:17;;;;;;;9.53;7.37;;;21.40;99.90;;;;;;4140234;28;20227;-80
2022/08/25 01:43:30;;;;;;;10.20;7.10;;;21.40;99.90;;;;;;4134701;28;20243;-80
2022/08/25 01:45:32;;;;;;;9.97;6.90;;;21.40;99.90;;;;;;4154062;28;20203;-81
2022/08/25 01:47:34;;;;;;;10.00;7.10;;;21.40;99.90;;;;;;4136903;28;20312;-80
2022/08/25 01:49:36;;;;;;;10.33;7.60;;;21.30;99.90;;;;;;4150482;28;20433;-80
2022/08/25 01:51:43;;;;;;;11.23;7.53;;;21.30;99.90;;;;;;4158478;28;20253;-80
2022/08/25 01:53:45;;;;;;;10.07;7.43;;;21.30;99.90;;;;;;4150412;28;20235;-80
2022/08/25 01:56:01;;;;;;;10.10;7.67;;;21.20;99.90;;;;;;4151403;28;20203;-82
2022/08/25 01:58:02;;;;;;;11.73;7.93;;;21.20;99.90;;;;;;4153777;28;20216;-80
2022/08/25 02:00:06;;;;;;;11.00;7.40;;;21.20;99.90;;;;;;4132496;28;20215;-80
2022/08/25 02:02:08;;;;;;;11.90;7.87;;;21.20;99.90;;;;;;4150007;28;20277;-82
2022/08/25 02:04:11;;;;;;;10.73;7.73;;;21.10;99.90;;;;;;4148026;28;20235;-80
2022/08/25 02:06:14;;;;;;;10.17;7.53;;;21.10;99.90;;;;;;4155169;28;20663;-80
2022/08/25 02:08:16;;;;;;;9.73;7.33;;;21.10;99.90;;;;;;4137892;28;20777;-80
2022/08/25 02:10:18;;;;;;;9.53;7.50;;;21.10;99.90;;;;;;4161566;28;20211;-80
2022/08/25 02:12:21;;;;;;;10.53;7.60;;;21.10;99.90;;;;;;4140861;28;20212;-81
2022/08/25 02:14:24;;;;;;;9.80;7.27;;;21.10;99.90;;;;;;4162117;28;20203;-80
2022/08/25 02:16:29;;;;;;;11.37;7.67;;;21.10;99.90;;;;;;4144750;28;20231;-82
2022/08/25 02:18:31;;;;;;;9.73;7.60;;;21.00;99.90;;;;;;4157846;28;20302;-80
2022/08/25 02:20:33;;;;;;;11.93;8.10;;;21.00;99.90;;;;;;4142430;28;20219;-80
2022/08/25 02:22:35;;;;;;;11.97;8.80;;;21.00;99.90;;;;;;4157334;28;20207;-80
2022/08/25 02:24:37;;;;;;;10.97;7.67;;;21.00;99.90;;;;;;4156827;28;20332;-80
2022/08/25 02:26:40;;;;;;;12.33;7.87;;;21.00;99.90;;;;;;4152931;28;20594;-80
2022/08/25 02:28:43;;;;;;;10.37;8.23;;;21.00;99.90;;;;;;4156992;28;20228;-80
2022/08/25 02:30:46;;;;;;;10.60;7.13;;;21.00;99.90;;;;;;4155365;28;20207;-80
2022/08/25 02:32:48;;;;;;;11.63;7.83;;;21.00;99.90;;;;;;4135175;28;20307;-80
2022/08/25 02:34:50;;;;;;;12.33;7.47;;;20.90;99.90;;;;;;4136340;28;20303;-81
2022/08/25 02:36:52;;;;;;;10.70;7.83;;;20.90;99.90;;;;;;4156673;28;20254;-82
2022/08/25 02:38:54;;;;;;;10.23;7.63;;;20.90;99.90;;;;;;4152927;28;20238;-80
2022/08/25 02:40:57;;;;;;;10.47;7.70;;;20.90;99.90;;;;;;4136781;28;20399;-81
2022/08/25 02:42:59;;;;;;;11.57;8.03;;;20.90;99.90;;;;;;4137601;28;20219;-81
2022/08/25 02:45:03;;;;;;;10.37;7.97;;;20.80;99.90;;;;;;4149859;28;20230;-79
2022/08/25 02:47:05;;;;;;;11.87;8.50;;;20.90;99.90;;;;;;4156535;28;20299;-81
2022/08/25 02:49:08;;;;;;;10.10;7.87;;;20.80;99.90;;;;;;4154657;28;20232;-82
2022/08/25 02:51:11;;;;;;;9.33;7.70;;;20.70;99.90;;;;;;4154826;28;20330;-80
2022/08/25 02:53:13;;;;;;;11.90;8.30;;;20.70;99.90;;;;;;4149819;28;20652;-82
2022/08/25 02:55:14;;;;;;;10.53;8.13;;;20.70;99.90;;;;;;4137299;28;20207;-80
2022/08/25 02:57:16;;;;;;;13.53;8.90;;;20.70;99.90;;;;;;4153862;28;20207;-80
2022/08/25 02:59:18;;;;;;;12.13;8.40;;;20.70;99.90;;;;;;4152882;28;20227;-80
2022/08/25 03:01:22;;;;;;;10.07;7.13;;;20.70;99.90;;;;;;4132042;28;20230;-80
2022/08/25 03:03:24;;;;;;;11.60;7.93;;;20.60;99.90;;;;;;4150874;28;20636;-80
2022/08/25 03:05:26;;;;;;;11.07;7.70;;;20.60;99.90;;;;;;4141408;28;20695;-80
2022/08/25 03:07:29;;;;;;;9.50;8.10;;;20.60;99.90;;;;;;4155817;28;20218;-80
2022/08/25 03:09:31;;;;;;;10.37;8.27;;;20.60;99.90;;;;;;4154914;28;20265;-80
2022/08/25 03:11:33;;;;;;;12.73;8.80;;;20.50;99.90;;;;;;4153697;28;20707;-80
2022/08/25 03:13:35;;;;;;;14.10;8.77;;;20.50;99.90;;;;;;4141413;28;20312;-80
2022/08/25 03:15:37;;;;;;;12.03;8.60;;;20.50;99.90;;;;;;4150201;28;20230;-80
2022/08/25 03:17:41;;;;;;;12.50;8.50;;;20.50;99.90;;;;;;4156071;28;20250;-80
2022/08/25 03:19:43;;;;;;;11.63;9.27;;;20.50;99.90;;;;;;4151595;28;20296;-80
2022/08/25 03:21:45;;;;;;;18.87;10.73;;;20.50;99.90;;;;;;4149151;28;20222;-80
2022/08/25 03:23:47;;;;;;;13.20;9.13;;;20.50;99.90;;;;;;4150139;28;20215;-81
2022/08/25 03:28:09;;;;;;;17.23;9.90;;;20.50;99.90;;;;;;4151906;28;20231;-80
2022/08/25 03:30:12;;;;;;;13.43;10.03;;;20.60;99.90;;;;;;4136264;28;20216;-79
2022/08/25 03:32:14;;;;;;;15.80;10.40;;;20.60;99.90;;;;;;4153605;28;20286;-81
2022/08/25 03:34:19;;;;;;;13.07;9.80;;;20.60;99.90;;;;;;4159726;28;20211;-80
2022/08/25 03:36:21;;;;;;;16.03;9.73;;;20.60;99.90;;;;;;4154133;28;20239;-79
2022/08/25 03:38:24;;;;;;;14.73;10.20;;;20.60;99.90;;;;;;4154319;28;20249;-80
2022/08/25 03:40:27;;;;;;;13.30;10.10;;;20.60;99.90;;;;;;4152671;28;20206;-80
2022/08/25 03:42:29;;;;;;;17.63;10.03;;;20.60;99.90;;;;;;4138981;28;20752;-80
2022/08/25 03:44:31;;;;;;;16.93;10.47;;;20.60;99.90;;;;;;4135868;28;20226;-81
2022/08/25 03:46:37;;;;;;;12.03;8.77;;;20.60;99.90;;;;;;4115385;28;20205;-80
2022/08/25 03:48:39;;;;;;;15.17;9.57;;;20.60;99.90;;;;;;4150397;28;20249;-80
2022/08/25 03:50:46;;;;;;;16.40;10.43;;;20.60;99.90;;;;;;4151948;28;20605;-80
2022/08/25 03:52:52;;;;;;;12.27;9.40;;;20.60;99.90;;;;;;4156984;28;20241;-80
2022/08/25 03:54:54;;;;;;;11.73;8.73;;;20.60;99.90;;;;;;4155608;28;20635;-80
2022/08/25 03:56:56;;;;;;;11.73;8.80;;;20.60;99.90;;;;;;4138816;28;20249;-80
2022/08/25 03:58:58;;;;;;;11.97;8.83;;;20.60;99.90;;;;;;4139580;28;20235;-80
2022/08/25 04:01:00;;;;;;;11.80;9.10;;;20.50;99.90;;;;;;4158089;28;20296;-79
2022/08/25 04:03:02;;;;;;;12.57;9.10;;;20.50;99.90;;;;;;4161794;28;20199;-80
2022/08/25 04:05:04;;;;;;;12.53;9.37;;;20.50;99.90;;;;;;4158167;28;20219;-81
2022/08/25 04:07:07;;;;;;;12.53;9.60;;;20.40;99.90;;;;;;4140914;28;20232;-80
2022/08/25 04:09:10;;;;;;;14.10;9.53;;;20.40;99.90;;;;;;4154332;28;20313;-81
2022/08/25 04:11:13;;;;;;;15.23;9.20;;;20.50;99.90;;;;;;4157921;28;20238;-80
2022/08/25 04:13:15;;;;;;;14.27;8.90;;;20.40;99.90;;;;;;4155340;28;20641;-79
2022/08/25 04:15:17;;;;;;;12.33;8.80;;;20.40;99.90;;;;;;4157215;28;20267;-80
2022/08/25 04:17:19;;;;;;;12.50;8.80;;;20.40;99.90;;;;;;4159715;28;20299;-80
2022/08/25 04:19:21;;;;;;;12.10;9.17;;;20.40;99.90;;;;;;4144568;28;20709;-80
2022/08/25 04:21:24;;;;;;;12.17;9.63;;;20.40;99.90;;;;;;4140214;28;20368;-80
2022/08/25 04:23:27;;;;;;;13.50;9.23;;;20.30;99.90;;;;;;4156789;28;20821;-82
2022/08/25 04:25:30;;;;;;;13.60;9.00;;;20.40;99.90;;;;;;4149361;28;20216;-80
2022/08/25 04:27:32;;;;;;;13.67;9.20;;;20.30;99.90;;;;;;4152604;28;20229;-80
2022/08/25 04:29:34;;;;;;;13.23;10.10;;;20.30;99.90;;;;;;4151786;28;20292;-80
2022/08/25 04:31:39;;;;;;;14.77;9.80;;;20.30;99.90;;;;;;4153133;28;20209;-80
2022/08/25 04:33:41;;;;;;;15.43;10.07;;;20.20;99.90;;;;;;4148376;28;20206;-80
2022/08/25 04:35:47;;;;;;;15.33;10.33;;;20.20;99.90;;;;;;4151738;28;20294;-80
2022/08/25 04:37:49;;;;;;;12.17;9.40;;;20.20;99.90;;;;;;4138393;28;20237;-80
2022/08/25 04:39:52;;;;;;;13.20;10.13;;;20.20;99.90;;;;;;4153582;28;20216;-80
2022/08/25 04:41:54;;;;;;;14.13;9.97;;;20.10;99.90;;;;;;4156036;28;20245;-79
2022/08/25 04:43:57;;;;;;;12.43;8.77;;;20.10;99.90;;;;;;4149488;28;20390;-80
2022/08/25 04:46:01;;;;;;;16.77;10.93;;;20.10;99.90;;;;;;4131987;28;20222;-80
2022/08/25 04:48:03;;;;;;;15.77;10.70;;;20.10;99.90;;;;;;4135102;28;20268;-81
2022/08/25 04:50:06;;;;;;;12.23;9.07;;;20.10;99.90;;;;;;4151766;28;20672;-81
2022/08/25 04:52:08;;;;;;;14.23;9.03;;;20.10;99.90;;;;;;4151222;28;20223;-80
2022/08/25 04:54:15;;;;;;;13.93;9.30;;;20.10;99.90;;;;;;4150273;28;20231;-80
2022/08/25 04:56:23;;;;;;;13.47;9.93;;;20.10;99.90;;;;;;4135919;28;20216;-81
2022/08/25 04:58:25;;;;;;;14.07;9.23;;;20.10;99.90;;;;;;4136118;28;20256;-80
2022/08/25 05:00:27;;;;;;;14.63;9.73;;;20.10;99.90;;;;;;4154406;28;20211;-81
2022/08/25 05:02:29;;;;;;;13.53;10.23;;;20.10;99.90;;;;;;4148772;28;20219;-81
2022/08/25 05:04:32;;;;;;;15.33;10.77;;;20.00;99.90;;;;;;4131168;28;20650;-80
2022/08/25 05:06:34;;;;;;;15.10;10.30;;;20.00;99.90;;;;;;4147184;28;20215;-81
2022/08/25 05:08:36;;;;;;;17.40;12.47;;;20.10;99.90;;;;;;4147931;28;20226;-81
2022/08/25 05:10:40;;;;;;;18.30;11.87;;;20.10;99.90;;;;;;4131331;28;20977;-81
2022/08/25 05:12:44;;;;;;;19.90;12.83;;;20.10;99.90;;;;;;4151710;28;20673;-80
2022/08/25 05:14:46;;;;;;;19.83;12.13;;;20.10;99.90;;;;;;4149976;28;20283;-82
2022/08/25 05:16:47;;;;;;;16.03;11.53;;;20.10;99.90;;;;;;4154671;28;20211;-79
2022/08/25 05:18:49;;;;;;;16.40;11.63;;;20.20;99.90;;;;;;4132362;28;20246;-80
2022/08/25 05:20:53;;;;;;;18.70;11.27;;;20.20;99.90;;;;;;4148698;28;20205;-81
2022/08/25 05:22:55;;;;;;;15.47;11.23;;;20.20;99.90;;;;;;4146383;28;20273;-80
2022/08/25 05:24:57;;;;;;;15.07;11.47;;;20.20;99.90;;;;;;4132008;28;20671;-80
2022/08/25 05:26:59;;;;;;;20.83;12.60;;;20.20;99.90;;;;;;4147491;28;20220;-81
2022/08/25 05:29:04;;;;;;;20.10;13.10;;;20.30;99.90;;;;;;4134427;28;20319;-80
2022/08/25 05:31:07;;;;;;;21.87;12.63;;;20.30;99.90;;;;;;4148530;28;20590;-80
2022/08/25 05:33:10;;;;;;;19.03;13.00;;;20.40;99.90;;;;;;4151053;28;20936;-81
2022/08/25 05:35:16;;;;;;;18.43;12.57;;;20.40;99.90;;;;;;4148746;28;20677;-80
2022/08/25 05:37:18;;;;;;;24.23;14.70;;;20.40;99.90;;;;;;4131933;28;20772;-80
2022/08/25 05:39:20;;;;;;;19.20;12.83;;;20.40;99.90;;;;;;4145190;28;20331;-81
2022/08/25 05:41:26;;;;;;;18.23;13.03;;;20.50;99.90;;;;;;4147813;28;20290;-80
2022/08/25 05:43:28;;;;;;;19.50;12.47;;;20.50;99.90;;;;;;4154650;28;20209;-79
2022/08/25 05:45:31;;;;;;;19.10;12.77;;;20.50;99.90;;;;;;4130474;28;20211;-80
2022/08/25 05:47:34;;;;;;;19.40;12.73;;;20.60;99.90;;;;;;4141399;28;20264;-80
2022/08/25 05:49:36;;;;;;;16.20;11.80;;;20.60;99.90;;;;;;4154463;28;20289;-80
2022/08/25 05:51:38;;;;;;;17.20;12.00;;;20.60;99.90;;;;;;4155024;28;20229;-80
2022/08/25 05:53:41;;;;;;;19.33;12.43;;;20.60;99.90;;;;;;4158081;28;20681;-81
2022/08/25 05:55:44;;;;;;;19.47;13.07;;;20.70;99.90;;;;;;4135272;28;20215;-80
2022/08/25 05:57:46;;;;;;;20.40;13.40;;;20.70;99.90;;;;;;4137271;28;20688;-80
2022/08/25 05:59:48;;;;;;;18.27;12.53;;;20.70;99.90;;;;;;4135031;28;20574;-80
2022/08/25 06:04:11;;;;;;;20.93;12.57;;;20.80;99.90;;;;;;4135880;28;20215;-82
2022/08/25 06:06:14;;;;;;;21.93;13.00;;;20.80;99.90;;;;;;4151271;28;20242;-80
2022/08/25 06:08:17;;;;;;;20.47;13.93;;;20.80;99.90;;;;;;4151742;28;20235;-80
2022/08/25 06:10:19;;;;;;;18.77;13.07;;;20.80;99.90;;;;;;4153277;28;20235;-81
2022/08/25 06:12:21;;;;;;;21.47;13.60;;;20.80;99.90;;;;;;4156931;28;20298;-80
2022/08/25 06:14:24;;;;;;;21.23;13.97;;;20.90;99.90;;;;;;4133755;28;20212;-80
2022/08/25 06:16:26;;;;;;;19.63;13.33;;;20.90;99.90;;;;;;4137489;28;20208;-82
2022/08/25 06:18:29;;;;;;;18.50;12.57;;;20.90;99.90;;;;;;4152828;28;20319;-80
2022/08/25 06:20:34;;;;;;;17.40;12.67;;;20.90;99.90;;;;;;4151554;28;20219;-81
2022/08/25 06:22:36;;;;;;;24.80;13.03;;;20.90;99.90;;;;;;4149133;28;20657;-80
2022/08/25 06:24:38;;;;;;;17.03;12.07;;;21.00;99.90;;;;;;4151373;28;20282;-79
2022/08/25 06:26:40;;;;;;;16.47;11.87;;;21.00;99.90;;;;;;4150952;28;20303;-79
2022/08/25 06:28:42;;;;;;;15.67;11.57;;;21.00;99.90;;;;;;4138209;28;20331;-75
2022/08/25 06:30:44;;;;;;;15.60;10.93;;;21.00;99.90;;;;;;4151887;28;20234;-75
2022/08/25 06:32:46;;;;;;;13.77;10.50;;;21.00;99.90;;;;;;4154888;28;20203;-75
2022/08/25 06:34:50;;;;;;;13.73;11.07;;;21.00;99.90;;;;;;4155019;28;20208;-76
2022/08/25 06:36:52;;;;;;;13.77;10.40;;;21.00;99.90;;;;;;4155549;28;20226;-77
2022/08/25 06:38:54;;;;;;;14.43;10.70;;;21.00;99.90;;;;;;4136473;28;20242;-76
2022/08/25 06:40:56;;;;;;;14.33;9.30;;;21.00;99.90;;;;;;4154546;28;20259;-76
2022/08/25 06:42:58;;;;;;;15.13;11.00;;;21.00;99.90;;;;;;4157674;28;20207;-76
2022/08/25 06:45:01;;;;;;;13.93;9.87;;;21.00;99.90;;;;;;4156258;28;20290;-77
2022/08/25 06:47:03;;;;;;;14.77;9.80;;;21.00;99.90;;;;;;4152891;28;20982;-76
2022/08/25 06:49:08;;;;;;;13.13;9.60;;;21.00;99.90;;;;;;4138017;28;20237;-76
2022/08/25 06:51:13;;;;;;;11.83;9.57;;;21.00;99.90;;;;;;4154763;28;20234;-76
2022/08/25 06:53:14;;;;;;;15.63;10.90;;;21.10;99.90;;;;;;4148959;28;20856;-76
2022/08/25 06:55:16;;;;;;;16.03;11.03;;;21.10;99.90;;;;;;4150259;28;20218;-75
2022/08/25 06:57:18;;;;;;;14.73;10.20;;;21.10;99.90;;;;;;4145394;28;20211;-76
2022/08/25 06:59:21;;;;;;;13.40;10.00;;;21.10;99.90;;;;;;4153589;28;20524;-76
2022/08/25 07:01:25;;;;;;;14.70;10.87;;;21.10;99.90;;;;;;4132620;28;20668;-76
2022/08/25 07:03:27;;;;;;;15.33;10.70;;;21.20;99.90;;;;;;4151652;28;20208;-77
2022/08/25 07:05:29;;;;;;;14.70;10.17;;;21.20;99.90;;;;;;4158462;28;20203;-76
2022/08/25 07:07:32;;;;;;;12.70;9.53;;;21.20;99.90;;;;;;4154318;28;20210;-76
2022/08/25 07:09:34;;;;;;;13.57;10.00;;;21.20;99.90;;;;;;4132397;28;20250;-76
2022/08/25 07:11:36;;;;;;;14.30;10.10;;;21.30;99.90;;;;;;4137396;28;20209;-77
2022/08/25 07:13:39;;;;;;;12.40;9.70;;;21.30;99.90;;;;;;4140256;28;20204;-77
2022/08/25 07:15:42;;;;;;;14.03;10.73;;;21.30;99.90;;;;;;4150587;28;20235;-76
2022/08/25 07:17:44;;;;;;;13.30;10.27;;;21.30;99.90;;;;;;4151950;28;20704;-76
2022/08/25 07:19:46;;;;;;;12.77;9.87;;;21.40;99.90;;;;;;4153266;28;20279;-76
2022/08/25 07:21:50;;;;;;;14.30;10.47;;;21.40;99.90;;;;;;4157840;28;20299;-76
2022/08/25 07:23:54;;;;;;;12.17;9.80;;;21.40;99.90;;;;;;4150466;28;20285;-77
2022/08/25 07:25:56;;;;;;;12.23;9.37;;;21.50;99.90;;;;;;4153630;28;20203;-77
2022/08/25 07:28:01;;;;;;;11.73;9.23;;;21.50;99.90;;;;;;4154487;28;20212;-76
2022/08/25 07:30:05;;;;;;;13.57;9.93;;;21.60;99.90;;;;;;4157934;28;20229;-76
2022/08/25 07:32:07;;;;;;;12.93;10.03;;;21.60;99.90;;;;;;4148218;28;20239;-76
2022/08/25 07:36:28;;;;;;;14.50;9.93;;;21.70;99.90;;;;;;4135636;28;20204;-76
2022/08/25 07:38:30;;;;;;;13.87;10.50;;;21.70;99.90;;;;;;4150210;28;20263;-76
2022/08/25 07:40:35;;;;;;;14.87;9.50;;;21.80;99.90;;;;;;4153137;28;20201;-76
2022/08/25 07:42:37;;;;;;;15.77;10.80;;;21.90;99.90;;;;;;4128596;28;20219;-76
2022/08/25 07:44:39;;;;;;;13.10;10.07;;;21.90;99.90;;;;;;4146975;28;20204;-77
2022/08/25 07:46:41;;;;;;;13.97;10.27;;;22.00;99.90;;;;;;4149758;28;20220;-76
2022/08/25 07:48:44;;;;;;;14.40;10.10;;;22.00;99.90;;;;;;4150543;28;20214;-76
2022/08/25 07:50:48;;;;;;;12.50;9.80;;;22.10;99.90;;;;;;4154629;28;20663;-76
2022/08/25 07:52:50;;;;;;;11.77;9.23;;;22.20;99.90;;;;;;4129269;28;20202;-77
2022/08/25 07:54:53;;;;;;;12.17;8.97;;;22.20;99.90;;;;;;4154883;28;20766;-78
2022/08/25 07:56:57;;;;;;;11.87;8.97;;;22.30;99.90;;;;;;4149531;28;20718;-76
2022/08/25 07:58:58;;;;;;;11.37;9.23;;;22.40;99.90;;;;;;4150224;28;20223;-76
2022/08/25 08:01:00;;;;;;;14.97;9.47;;;22.50;99.90;;;;;;4147100;28;20207;-76
2022/08/25 08:03:04;;;;;;;12.37;10.20;;;22.60;99.90;;;;;;4131030;28;20224;-76
2022/08/25 08:05:06;;;;;;;13.80;9.90;;;22.70;99.90;;;;;;4146982;28;20211;-76
2022/08/25 08:07:08;;;;;;;11.90;9.20;;;22.80;99.90;;;;;;4149168;28;20212;-76
2022/08/25 08:09:12;;;;;;;13.23;9.07;;;22.90;99.90;;;;;;4130746;28;20223;-76
2022/08/25 08:11:16;;;;;;;13.00;9.37;;;23.00;99.90;;;;;;4129575;28;20227;-76
2022/08/25 08:13:19;;;;;;;12.47;9.57;;;23.10;99.90;;;;;;4133321;28;20208;-76
2022/08/25 08:15:21;;;;;;;14.73;9.57;;;23.20;99.90;;;;;;4150138;28;20212;-80
2022/08/25 08:17:24;;;;;;;14.83;9.63;;;23.20;99.90;;;;;;4152620;28;20223;-80
2022/08/25 08:19:26;;;;;;;17.27;10.03;;;23.30;99.90;;;;;;4151709;28;20228;-80
2022/08/25 08:21:31;;;;;;;13.03;9.50;;;23.40;99.90;;;;;;4149568;28;20203;-80
2022/08/25 08:23:32;;;;;;;12.47;9.30;;;23.50;99.90;;;;;;4133131;28;20215;-81
2022/08/25 08:25:34;;;;;;;13.57;9.30;;;23.60;99.90;;;;;;4152612;28;20613;-80
2022/08/25 08:27:36;;;;;;;13.77;9.17;;;23.70;99.90;;;;;;4142176;28;20226;-81
2022/08/25 08:29:41;;;;;;;12.53;9.07;;;23.80;99.90;;;;;;4151235;28;20235;-80
2022/08/25 08:31:44;;;;;;;12.73;9.40;;;23.90;99.90;;;;;;4135194;28;20299;-80
2022/08/25 08:33:46;;;;;;;13.37;9.43;;;24.00;99.90;;;;;;4151078;28;20653;-80
2022/08/25 08:35:48;;;;;;;12.87;8.80;;;24.10;99.90;;;;;;4133794;28;20207;-80
2022/08/25 08:37:49;;;;;;;10.77;8.57;;;24.20;99.90;;;;;;4149631;28;20671;-78
2022/08/25 08:39:52;;;;;;;15.73;8.67;;;24.20;99.90;;;;;;4152744;28;20951;-81
2022/08/25 08:42:17;;;;;;;11.67;8.67;;;24.30;99.90;;;;;;4160360;28;20215;-79
2022/08/25 08:44:26;;;;;;;12.20;8.63;;;24.30;99.90;;;;;;4158978;28;20202;-85
2022/08/25 08:46:39;;;;;;;16.27;9.60;;;24.40;99.90;;;;;;4157407;28;20203;-82
2022/08/25 08:48:52;;;;;;;13.30;9.23;;;24.50;99.90;;;;;;4159263;28;20231;-81
2022/08/25 08:51:03;;;;;;;12.37;8.70;;;24.50;99.90;;;;;;4144160;28;20267;-80
2022/08/25 08:53:11;;;;;;;12.00;9.07;;;24.60;99.90;;;;;;4160134;28;20233;-81
2022/08/25 08:55:23;;;;;;;18.47;10.10;;;24.60;99.90;;;;;;4161777;28;20214;-80
2022/08/25 08:57:28;;;;;;;15.43;9.63;;;24.60;99.90;;;;;;4145619;28;20204;-80
2022/08/25 08:59:40;;;;;;;15.87;11.20;;;24.60;99.90;;;;;;4157754;28;20246;-79
2022/08/25 09:01:48;;;;;;;16.17;11.53;;;24.50;99.90;;;;;;4157827;28;20223;-80
2022/08/25 09:03:55;;;;;;;18.20;11.80;;;24.50;99.90;;;;;;4158973;28;20199;-80
2022/08/25 09:06:01;;;;;;;16.63;11.70;;;24.40;99.90;;;;;;4144038;28;20208;-80
2022/08/25 09:08:07;;;;;;;17.50;11.83;;;24.40;99.90;;;;;;4162834;28;20222;-79
2022/08/25 09:10:10;;;;;;;15.97;11.43;;;24.40;99.90;;;;;;4141401;28;20226;-79
2022/08/25 09:12:15;;;;;;;17.83;12.33;;;24.40;99.90;;;;;;4148892;28;20207;-79
2022/08/25 09:14:38;;;;;;;15.70;11.70;;;24.50;99.90;;;;;;4151059;28;20204;-79
2022/08/25 09:16:54;;;;;;;13.67;11.07;;;24.50;99.90;;;;;;4145290;28;20753;-79
2022/08/25 09:19:05;;;;;;;16.57;11.60;;;24.60;99.90;;;;;;4132698;28;20596;-79
2022/08/25 09:21:16;;;;;;;14.57;11.20;;;24.60;99.90;;;;;;4147847;28;20199;-78
2022/08/25 09:23:32;;;;;;;19.20;11.50;;;24.60;99.90;;;;;;4148045;28;20234;-79
2022/08/25 09:25:45;;;;;;;16.20;11.80;;;24.60;99.90;;;;;;4147768;28;20697;-79
2022/08/25 09:27:55;;;;;;;15.87;11.60;;;24.60;99.90;;;;;;4149283;28;20199;-79
2022/08/25 09:30:03;;;;;;;20.13;12.00;;;24.70;99.90;;;;;;4150214;28;20210;-79
2022/08/25 09:32:08;;;;;;;16.70;11.47;;;24.70;99.90;;;;;;4129459;28;20656;-79
2022/08/25 09:34:22;;;;;;;17.87;10.37;;;24.90;99.90;;;;;;4147844;28;20231;-78
2022/08/25 09:36:24;;;;;;;16.33;11.13;;;24.80;99.90;;;;;;4136296;28;20262;-79
2022/08/25 09:38:32;;;;;;;16.30;11.30;;;24.90;99.90;;;;;;4153399;28;20660;-79
2022/08/25 09:40:39;;;;;;;18.83;10.77;;;24.90;99.90;;;;;;4127517;28;20214;-80
2022/08/25 09:42:49;;;;;;;17.43;10.67;;;25.00;99.90;;;;;;4151655;28;20210;-81
2022/08/25 09:44:51;;;;;;;16.67;11.33;;;25.20;99.90;;;;;;4135977;28;20246;-86
2022/08/25 09:47:07;;;;;;;15.33;10.57;;;25.20;99.90;;;;;;4132093;28;20624;-80
2022/08/25 09:49:15;;;;;;;15.10;11.07;;;25.30;99.90;;;;;;4149139;28;20230;-78
2022/08/25 09:51:20;;;;;;;14.97;10.57;;;25.40;99.90;;;;;;4146836;28;20211;-77
2022/08/25 09:53:23;;;;;;;14.43;10.50;;;25.50;99.90;;;;;;4148056;28;20208;-79
2022/08/25 09:55:30;;;;;;;14.50;10.53;;;25.60;99.90;;;;;;4149354;28;20500;-78
2022/08/25 09:57:35;;;;;;;18.53;10.70;;;25.70;99.90;;;;;;4148738;28;20211;-81
2022/08/25 09:59:37;;;;;;;16.53;11.80;;;25.70;99.90;;;;;;4132244;28;20311;-80
2022/08/25 10:01:48;;;;;;;16.27;10.00;;;25.70;99.90;;;;;;4148081;28;20210;-77
2022/08/25 10:04:01;;;;;;;22.10;10.97;;;25.80;99.90;;;;;;4150597;28;20237;-81
2022/08/25 10:06:10;;;;;;;19.10;10.73;;;25.80;99.90;;;;;;4148249;28;20214;-81
2022/08/25 10:08:14;;;;;;;20.47;10.70;;;25.90;99.90;;;;;;4148694;28;20242;-81
2022/08/25 10:10:21;;;;;;;16.13;9.90;;;25.90;99.90;;;;;;4148857;28;20231;-83
2022/08/25 10:12:30;;;;;;;17.93;10.63;;;26.00;99.90;;;;;;4130994;28;20950;-81
2022/08/25 10:14:37;;;;;;;18.87;10.60;;;26.10;99.90;;;;;;4149412;28;20230;-77
2022/08/25 10:16:39;;;;;;;18.13;11.43;;;26.10;99.90;;;;;;4132523;28;20209;-81
2022/08/25 10:18:41;;;;;;;24.13;11.37;;;26.10;99.90;;;;;;4149121;28;20231;-82
2022/08/25 10:21:00;;;;;;;23.17;11.87;;;26.20;99.90;;;;;;4134886;28;20204;-80
2022/08/25 10:23:11;;;;;;;15.80;10.90;;;26.20;99.90;;;;;;4152828;28;20225;-81
2022/08/25 10:25:15;;;;;;;14.97;10.30;;;26.30;99.90;;;;;;4147772;28;20204;-80
2022/08/25 10:27:27;;;;;;;16.37;11.37;;;26.20;99.90;;;;;;4132818;28;20323;-82
2022/08/25 10:29:46;;;;;;;15.10;11.10;;;26.30;99.90;;;;;;4153333;28;20230;-80
2022/08/25 10:31:54;;;;;;;14.70;10.50;;;26.30;99.90;;;;;;4134818;28;20316;-81
2022/08/25 10:34:09;;;;;;;16.57;9.97;;;26.40;99.90;;;;;;4154087;28;20673;-81
2022/08/25 10:36:20;;;;;;;12.87;10.17;;;26.40;99.90;;;;;;4159473;28;20256;-81
2022/08/25 10:38:33;;;;;;;17.40;10.13;;;26.40;99.90;;;;;;4153077;28;20238;-82
2022/08/25 10:40:40;;;;;;;18.37;10.20;;;26.40;99.90;;;;;;4141526;28;20204;-80
2022/08/25 10:42:53;;;;;;;16.77;10.10;;;26.40;99.90;;;;;;4142059;28;20226;-82